Athens, Greece
Current Conditions -  °F | °C
As of 4:20 AM on Friday 28 Nov 2014 (Local Time) from LGEL Reporting Station
Broken Clouds Broken Clouds  
Wind Chill: 11°   Ceiling: 2500
Heat Index: 11°   Visibility: 6mi
Dew Point:   Wind: 0mph
Humidity: 88%   Direction: NA
Pressure: 30.15"   Gusts: NA
Location:  37.98°N, 23.73°E
Report Text: LGEL 280120Z 00000KT 9999 FEW018 BKN025 BKN070 11/09 Q1021
Loading
Personal Weather Stations






























Interactive Weather Map New forecast layout! Learn more

10-Day Weather Forecast

Advertisements
Track Severe Weather on mobile